sensor_id;sensor_type;location;lat;lon;timestamp;P1;durP1;ratioP1;P2;durP2;ratioP2
32946;SDS011;54465;51.230;22.504;2024-02-26T00:03:23;7.07;;;5.03;;
32946;SDS011;54465;51.230;22.504;2024-02-26T00:08:24;6.43;;;4.80;;
32946;SDS011;54465;51.230;22.504;2024-02-26T00:13:24;5.85;;;4.55;;
32946;SDS011;54465;51.230;22.504;2024-02-26T00:18:25;7.28;;;4.75;;
32946;SDS011;54465;51.230;22.504;2024-02-26T00:23:25;5.57;;;4.90;;
32946;SDS011;54465;51.230;22.504;2024-02-26T00:28:27;6.47;;;4.78;;
32946;SDS011;54465;51.230;22.504;2024-02-26T00:33:29;6.72;;;4.63;;
32946;SDS011;54465;51.230;22.504;2024-02-26T00:38:29;5.60;;;4.30;;
32946;SDS011;54465;51.230;22.504;2024-02-26T00:43:30;7.38;;;4.95;;
32946;SDS011;54465;51.230;22.504;2024-02-26T00:48:30;6.63;;;5.47;;
32946;SDS011;54465;51.230;22.504;2024-02-26T00:53:31;8.52;;;4.55;;
32946;SDS011;54465;51.230;22.504;2024-02-26T00:58:32;6.47;;;5.50;;
32946;SDS011;54465;51.230;22.504;2024-02-26T01:03:32;6.63;;;4.97;;
32946;SDS011;54465;51.230;22.504;2024-02-26T01:08:33;6.35;;;5.05;;
32946;SDS011;54465;51.230;22.504;2024-02-26T01:13:35;8.35;;;5.20;;
32946;SDS011;54465;51.230;22.504;2024-02-26T01:18:36;7.28;;;5.07;;
32946;SDS011;54465;51.230;22.504;2024-02-26T01:23:37;9.20;;;5.85;;
32946;SDS011;54465;51.230;22.504;2024-02-26T01:28:37;6.97;;;4.90;;
32946;SDS011;54465;51.230;22.504;2024-02-26T01:33:38;7.95;;;5.30;;
32946;SDS011;54465;51.230;22.504;2024-02-26T01:38:38;8.15;;;5.88;;
32946;SDS011;54465;51.230;22.504;2024-02-26T01:43:38;6.03;;;4.97;;
32946;SDS011;54465;51.230;22.504;2024-02-26T01:48:40;7.78;;;5.22;;
32946;SDS011;54465;51.230;22.504;2024-02-26T01:53:41;6.07;;;4.90;;
32946;SDS011;54465;51.230;22.504;2024-02-26T01:58:42;6.28;;;5.20;;
32946;SDS011;54465;51.230;22.504;2024-02-26T02:03:43;6.40;;;5.63;;
32946;SDS011;54465;51.230;22.504;2024-02-26T02:08:45;6.82;;;5.20;;
32946;SDS011;54465;51.230;22.504;2024-02-26T02:13:46;7.70;;;5.57;;
32946;SDS011;54465;51.230;22.504;2024-02-26T02:18:47;7.18;;;5.82;;
32946;SDS011;54465;51.230;22.504;2024-02-26T02:23:48;6.93;;;4.95;;
32946;SDS011;54465;51.230;22.504;2024-02-26T02:28:49;7.22;;;5.15;;
32946;SDS011;54465;51.230;22.504;2024-02-26T02:33:49;7.88;;;5.13;;
32946;SDS011;54465;51.230;22.504;2024-02-26T02:38:50;6.82;;;4.90;;
32946;SDS011;54465;51.230;22.504;2024-02-26T02:43:51;8.07;;;5.53;;
32946;SDS011;54465;51.230;22.504;2024-02-26T02:48:52;7.78;;;5.07;;
32946;SDS011;54465;51.230;22.504;2024-02-26T02:53:52;7.25;;;5.07;;
32946;SDS011;54465;51.230;22.504;2024-02-26T02:58:53;8.48;;;5.50;;
32946;SDS011;54465;51.230;22.504;2024-02-26T03:03:54;7.70;;;5.63;;
32946;SDS011;54465;51.230;22.504;2024-02-26T03:08:54;7.60;;;5.40;;
32946;SDS011;54465;51.230;22.504;2024-02-26T03:13:55;6.90;;;5.38;;
32946;SDS011;54465;51.230;22.504;2024-02-26T03:18:55;6.85;;;5.32;;
32946;SDS011;54465;51.230;22.504;2024-02-26T03:23:56;6.80;;;5.57;;
32946;SDS011;54465;51.230;22.504;2024-02-26T03:28:57;6.32;;;5.60;;
32946;SDS011;54465;51.230;22.504;2024-02-26T03:33:58;7.65;;;5.75;;
32946;SDS011;54465;51.230;22.504;2024-02-26T03:38:58;6.45;;;5.28;;
32946;SDS011;54465;51.230;22.504;2024-02-26T03:43:59;6.57;;;5.68;;
32946;SDS011;54465;51.230;22.504;2024-02-26T03:48:59;7.43;;;5.57;;
32946;SDS011;54465;51.230;22.504;2024-02-26T03:54:00;6.47;;;5.60;;
32946;SDS011;54465;51.230;22.504;2024-02-26T03:59:01;8.82;;;5.28;;
32946;SDS011;54465;51.230;22.504;2024-02-26T04:04:02;6.50;;;5.43;;
32946;SDS011;54465;51.230;22.504;2024-02-26T04:09:03;7.30;;;5.40;;
32946;SDS011;54465;51.230;22.504;2024-02-26T04:14:04;6.05;;;5.38;;
32946;SDS011;54465;51.230;22.504;2024-02-26T04:19:06;6.68;;;5.93;;
32946;SDS011;54465;51.230;22.504;2024-02-26T04:24:07;6.55;;;5.30;;
32946;SDS011;54465;51.230;22.504;2024-02-26T04:29:07;8.07;;;5.72;;
32946;SDS011;54465;51.230;22.504;2024-02-26T04:34:08;7.97;;;6.03;;
32946;SDS011;54465;51.230;22.504;2024-02-26T04:39:09;9.80;;;5.30;;
32946;SDS011;54465;51.230;22.504;2024-02-26T04:44:10;7.60;;;5.85;;
32946;SDS011;54465;51.230;22.504;2024-02-26T04:49:10;6.38;;;5.43;;
32946;SDS011;54465;51.230;22.504;2024-02-26T04:54:11;6.55;;;5.70;;
32946;SDS011;54465;51.230;22.504;2024-02-26T04:59:11;6.32;;;5.72;;
32946;SDS011;54465;51.230;22.504;2024-02-26T05:04:12;7.22;;;5.50;;
32946;SDS011;54465;51.230;22.504;2024-02-26T05:09:12;7.68;;;5.65;;
32946;SDS011;54465;51.230;22.504;2024-02-26T05:14:13;7.95;;;6.47;;
32946;SDS011;54465;51.230;22.504;2024-02-26T05:19:13;7.03;;;5.80;;
32946;SDS011;54465;51.230;22.504;2024-02-26T05:24:14;5.95;;;5.07;;
32946;SDS011;54465;51.230;22.504;2024-02-26T05:29:17;6.00;;;5.40;;
32946;SDS011;54465;51.230;22.504;2024-02-26T05:34:17;7.75;;;5.28;;
32946;SDS011;54465;51.230;22.504;2024-02-26T05:39:18;6.80;;;5.50;;
32946;SDS011;54465;51.230;22.504;2024-02-26T05:44:20;9.07;;;5.60;;
32946;SDS011;54465;51.230;22.504;2024-02-26T05:49:22;7.00;;;5.45;;
32946;SDS011;54465;51.230;22.504;2024-02-26T05:54:23;6.22;;;4.80;;
32946;SDS011;54465;51.230;22.504;2024-02-26T05:59:23;6.13;;;5.53;;
32946;SDS011;54465;51.230;22.504;2024-02-26T06:04:24;7.72;;;5.82;;
32946;SDS011;54465;51.230;22.504;2024-02-26T06:09:24;7.20;;;6.00;;
32946;SDS011;54465;51.230;22.504;2024-02-26T06:14:25;8.23;;;6.78;;
32946;SDS011;54465;51.230;22.504;2024-02-26T06:19:25;9.70;;;7.75;;
32946;SDS011;54465;51.230;22.504;2024-02-26T06:24:26;9.52;;;7.18;;
32946;SDS011;54465;51.230;22.504;2024-02-26T06:29:26;8.68;;;7.40;;
32946;SDS011;54465;51.230;22.504;2024-02-26T06:34:27;12.57;;;7.15;;
32946;SDS011;54465;51.230;22.504;2024-02-26T06:39:28;8.60;;;7.28;;
32946;SDS011;54465;51.230;22.504;2024-02-26T06:44:28;8.98;;;8.00;;
32946;SDS011;54465;51.230;22.504;2024-02-26T06:49:34;9.70;;;8.32;;
32946;SDS011;54465;51.230;22.504;2024-02-26T06:54:35;10.25;;;7.90;;
32946;SDS011;54465;51.230;22.504;2024-02-26T06:59:35;11.40;;;8.60;;
32946;SDS011;54465;51.230;22.504;2024-02-26T07:04:36;10.05;;;8.00;;
32946;SDS011;54465;51.230;22.504;2024-02-26T07:09:37;10.55;;;7.95;;
32946;SDS011;54465;51.230;22.504;2024-02-26T07:14:37;11.50;;;8.90;;
32946;SDS011;54465;51.230;22.504;2024-02-26T07:19:38;10.07;;;8.73;;
32946;SDS011;54465;51.230;22.504;2024-02-26T07:24:39;10.90;;;7.78;;
32946;SDS011;54465;51.230;22.504;2024-02-26T07:29:40;11.57;;;8.07;;
32946;SDS011;54465;51.230;22.504;2024-02-26T07:34:40;12.63;;;8.30;;
32946;SDS011;54465;51.230;22.504;2024-02-26T07:39:42;10.27;;;7.60;;
32946;SDS011;54465;51.230;22.504;2024-02-26T07:44:42;10.52;;;7.80;;
32946;SDS011;54465;51.230;22.504;2024-02-26T07:49:43;10.75;;;8.27;;
32946;SDS011;54465;51.230;22.504;2024-02-26T07:54:44;12.02;;;8.18;;
32946;SDS011;54465;51.230;22.504;2024-02-26T07:59:44;13.38;;;8.68;;
32946;SDS011;54465;51.230;22.504;2024-02-26T08:04:49;10.68;;;8.07;;
32946;SDS011;54465;51.230;22.504;2024-02-26T08:09:50;12.00;;;8.48;;
32946;SDS011;54465;51.230;22.504;2024-02-26T08:14:50;10.43;;;8.27;;
32946;SDS011;54465;51.230;22.504;2024-02-26T08:19:51;11.13;;;8.63;;
32946;SDS011;54465;51.230;22.504;2024-02-26T08:24:52;12.32;;;8.32;;
32946;SDS011;54465;51.230;22.504;2024-02-26T08:29:52;10.98;;;8.57;;
32946;SDS011;54465;51.230;22.504;2024-02-26T08:34:53;11.43;;;8.75;;
32946;SDS011;54465;51.230;22.504;2024-02-26T08:39:53;13.75;;;10.27;;
32946;SDS011;54465;51.230;22.504;2024-02-26T08:44:54;12.63;;;9.15;;
32946;SDS011;54465;51.230;22.504;2024-02-26T08:49:55;12.20;;;9.07;;
32946;SDS011;54465;51.230;22.504;2024-02-26T08:54:55;15.02;;;10.45;;
32946;SDS011;54465;51.230;22.504;2024-02-26T08:59:57;14.85;;;10.38;;
32946;SDS011;54465;51.230;22.504;2024-02-26T09:04:57;13.73;;;10.13;;
32946;SDS011;54465;51.230;22.504;2024-02-26T09:09:58;25.95;;;10.77;;
32946;SDS011;54465;51.230;22.504;2024-02-26T09:14:58;12.13;;;9.13;;
32946;SDS011;54465;51.230;22.504;2024-02-26T09:19:59;12.27;;;8.65;;
32946;SDS011;54465;51.230;22.504;2024-02-26T09:25:00;13.63;;;9.48;;
32946;SDS011;54465;51.230;22.504;2024-02-26T09:30:00;12.32;;;9.10;;
32946;SDS011;54465;51.230;22.504;2024-02-26T09:35:01;10.57;;;8.35;;
32946;SDS011;54465;51.230;22.504;2024-02-26T09:40:03;12.88;;;9.07;;
32946;SDS011;54465;51.230;22.504;2024-02-26T09:45:05;12.68;;;9.13;;
32946;SDS011;54465;51.230;22.504;2024-02-26T09:50:08;12.40;;;9.18;;
32946;SDS011;54465;51.230;22.504;2024-02-26T09:55:09;11.63;;;9.68;;
32946;SDS011;54465;51.230;22.504;2024-02-26T10:00:11;15.38;;;9.13;;
32946;SDS011;54465;51.230;22.504;2024-02-26T10:05:16;12.80;;;9.23;;
32946;SDS011;54465;51.230;22.504;2024-02-26T10:10:21;12.13;;;7.90;;
32946;SDS011;54465;51.230;22.504;2024-02-26T10:15:22;11.23;;;8.43;;
32946;SDS011;54465;51.230;22.504;2024-02-26T10:20:23;11.88;;;8.60;;
32946;SDS011;54465;51.230;22.504;2024-02-26T10:25:24;10.95;;;8.15;;
32946;SDS011;54465;51.230;22.504;2024-02-26T10:30:25;12.82;;;8.90;;
32946;SDS011;54465;51.230;22.504;2024-02-26T10:35:26;10.63;;;8.15;;
32946;SDS011;54465;51.230;22.504;2024-02-26T10:40:28;12.70;;;8.60;;
32946;SDS011;54465;51.230;22.504;2024-02-26T10:45:29;12.80;;;8.38;;
32946;SDS011;54465;51.230;22.504;2024-02-26T10:50:30;11.82;;;8.55;;
32946;SDS011;54465;51.230;22.504;2024-02-26T10:55:30;12.02;;;8.82;;
32946;SDS011;54465;51.230;22.504;2024-02-26T11:00:33;12.23;;;8.65;;
32946;SDS011;54465;51.230;22.504;2024-02-26T11:05:34;12.65;;;7.88;;
32946;SDS011;54465;51.230;22.504;2024-02-26T11:10:35;13.65;;;8.63;;
32946;SDS011;54465;51.230;22.504;2024-02-26T11:15:36;12.70;;;7.72;;
32946;SDS011;54465;51.230;22.504;2024-02-26T11:20:38;11.15;;;7.68;;
32946;SDS011;54465;51.230;22.504;2024-02-26T11:25:39;14.05;;;8.82;;
32946;SDS011;54465;51.230;22.504;2024-02-26T11:30:42;11.13;;;7.57;;
32946;SDS011;54465;51.230;22.504;2024-02-26T11:35:45;10.75;;;8.07;;
32946;SDS011;54465;51.230;22.504;2024-02-26T11:40:46;8.20;;;6.90;;
32946;SDS011;54465;51.230;22.504;2024-02-26T11:50:54;8.63;;;6.43;;
32946;SDS011;54465;51.230;22.504;2024-02-26T12:06:46;6.30;;;5.40;;
32946;SDS011;54465;51.230;22.504;2024-02-26T12:11:49;7.85;;;5.55;;
32946;SDS011;54465;51.230;22.504;2024-02-26T12:16:49;10.00;;;5.68;;
32946;SDS011;54465;51.230;22.504;2024-02-26T12:21:53;8.88;;;5.20;;
32946;SDS011;54465;51.230;22.504;2024-02-26T12:26:55;8.30;;;5.60;;
32946;SDS011;54465;51.230;22.504;2024-02-26T12:31:56;8.70;;;5.15;;
32946;SDS011;54465;51.230;22.504;2024-02-26T12:36:57;6.28;;;5.22;;
32946;SDS011;54465;51.230;22.504;2024-02-26T12:41:58;9.20;;;5.20;;
32946;SDS011;54465;51.230;22.504;2024-02-26T12:47:02;9.65;;;5.57;;
32946;SDS011;54465;51.230;22.504;2024-02-26T12:52:04;8.77;;;4.50;;
32946;SDS011;54465;51.230;22.504;2024-02-26T12:57:05;7.60;;;5.90;;
32946;SDS011;54465;51.230;22.504;2024-02-26T13:02:07;8.13;;;5.60;;
32946;SDS011;54465;51.230;22.504;2024-02-26T13:07:07;6.75;;;5.45;;
32946;SDS011;54465;51.230;22.504;2024-02-26T13:12:08;13.48;;;5.88;;
32946;SDS011;54465;51.230;22.504;2024-02-26T13:17:09;7.18;;;5.25;;
32946;SDS011;54465;51.230;22.504;2024-02-26T13:22:10;5.13;;;4.63;;
32946;SDS011;54465;51.230;22.504;2024-02-26T13:27:10;6.40;;;4.70;;
32946;SDS011;54465;51.230;22.504;2024-02-26T13:32:11;8.93;;;4.97;;
32946;SDS011;54465;51.230;22.504;2024-02-26T13:37:12;7.20;;;5.03;;
32946;SDS011;54465;51.230;22.504;2024-02-26T13:42:13;6.72;;;5.28;;
32946;SDS011;54465;51.230;22.504;2024-02-26T13:47:13;5.28;;;4.70;;
32946;SDS011;54465;51.230;22.504;2024-02-26T13:52:14;7.93;;;4.47;;
32946;SDS011;54465;51.230;22.504;2024-02-26T13:57:15;9.50;;;5.03;;
32946;SDS011;54465;51.230;22.504;2024-02-26T14:02:16;6.07;;;4.78;;
32946;SDS011;54465;51.230;22.504;2024-02-26T14:07:17;7.22;;;4.25;;
32946;SDS011;54465;51.230;22.504;2024-02-26T14:12:17;9.10;;;5.40;;
32946;SDS011;54465;51.230;22.504;2024-02-26T14:17:18;7.82;;;4.50;;
32946;SDS011;54465;51.230;22.504;2024-02-26T14:22:19;8.27;;;4.30;;
32946;SDS011;54465;51.230;22.504;2024-02-26T14:27:19;6.22;;;4.13;;
32946;SDS011;54465;51.230;22.504;2024-02-26T14:32:22;5.78;;;4.53;;
32946;SDS011;54465;51.230;22.504;2024-02-26T14:37:22;5.50;;;4.38;;
32946;SDS011;54465;51.230;22.504;2024-02-26T14:42:23;8.32;;;4.32;;
32946;SDS011;54465;51.230;22.504;2024-02-26T14:47:24;6.43;;;4.45;;
32946;SDS011;54465;51.230;22.504;2024-02-26T14:52:25;5.80;;;4.28;;
32946;SDS011;54465;51.230;22.504;2024-02-26T14:57:25;8.88;;;4.68;;
32946;SDS011;54465;51.230;22.504;2024-02-26T15:02:26;8.50;;;4.32;;
32946;SDS011;54465;51.230;22.504;2024-02-26T15:07:26;5.47;;;4.10;;
32946;SDS011;54465;51.230;22.504;2024-02-26T15:12:28;7.65;;;3.80;;
32946;SDS011;54465;51.230;22.504;2024-02-26T15:17:32;8.50;;;4.75;;
32946;SDS011;54465;51.230;22.504;2024-02-26T15:22:35;5.15;;;3.85;;
32946;SDS011;54465;51.230;22.504;2024-02-26T15:27:36;8.43;;;4.90;;
32946;SDS011;54465;51.230;22.504;2024-02-26T15:32:37;6.90;;;4.80;;
32946;SDS011;54465;51.230;22.504;2024-02-26T15:37:38;9.23;;;5.47;;
32946;SDS011;54465;51.230;22.504;2024-02-26T15:42:38;7.10;;;5.68;;
32946;SDS011;54465;51.230;22.504;2024-02-26T15:47:41;8.30;;;6.03;;
32946;SDS011;54465;51.230;22.504;2024-02-26T15:52:42;20.25;;;6.57;;
32946;SDS011;54465;51.230;22.504;2024-02-26T15:57:42;12.45;;;7.82;;
32946;SDS011;54465;51.230;22.504;2024-02-26T16:02:43;16.77;;;9.48;;
32946;SDS011;54465;51.230;22.504;2024-02-26T16:07:54;16.25;;;11.20;;
32946;SDS011;54465;51.230;22.504;2024-02-26T16:12:59;17.98;;;12.02;;
32946;SDS011;54465;51.230;22.504;2024-02-26T16:18:00;19.50;;;14.85;;
32946;SDS011;54465;51.230;22.504;2024-02-26T16:23:01;18.52;;;13.02;;
32946;SDS011;54465;51.230;22.504;2024-02-26T16:28:06;21.35;;;13.52;;
32946;SDS011;54465;51.230;22.504;2024-02-26T16:33:06;21.25;;;14.45;;
32946;SDS011;54465;51.230;22.504;2024-02-26T16:38:07;25.48;;;15.18;;
32946;SDS011;54465;51.230;22.504;2024-02-26T16:43:08;23.30;;;14.77;;
32946;SDS011;54465;51.230;22.504;2024-02-26T16:48:09;23.58;;;17.08;;
32946;SDS011;54465;51.230;22.504;2024-02-26T16:53:09;26.95;;;18.95;;
32946;SDS011;54465;51.230;22.504;2024-02-26T16:58:10;26.55;;;18.80;;
32946;SDS011;54465;51.230;22.504;2024-02-26T17:03:10;24.70;;;17.85;;
32946;SDS011;54465;51.230;22.504;2024-02-26T17:08:11;25.05;;;18.77;;
32946;SDS011;54465;51.230;22.504;2024-02-26T17:13:12;28.40;;;18.17;;
32946;SDS011;54465;51.230;22.504;2024-02-26T17:18:13;22.70;;;17.17;;
32946;SDS011;54465;51.230;22.504;2024-02-26T17:23:14;25.25;;;18.55;;
32946;SDS011;54465;51.230;22.504;2024-02-26T17:28:14;27.65;;;18.17;;
32946;SDS011;54465;51.230;22.504;2024-02-26T17:33:15;24.92;;;17.42;;
32946;SDS011;54465;51.230;22.504;2024-02-26T17:38:15;25.98;;;18.05;;
32946;SDS011;54465;51.230;22.504;2024-02-26T17:43:16;24.40;;;16.70;;
32946;SDS011;54465;51.230;22.504;2024-02-26T17:48:17;25.60;;;17.70;;
32946;SDS011;54465;51.230;22.504;2024-02-26T17:53:18;25.15;;;17.48;;
32946;SDS011;54465;51.230;22.504;2024-02-26T17:58:19;23.25;;;16.05;;
32946;SDS011;54465;51.230;22.504;2024-02-26T18:03:20;22.65;;;15.65;;
32946;SDS011;54465;51.230;22.504;2024-02-26T18:08:20;21.15;;;14.63;;
32946;SDS011;54465;51.230;22.504;2024-02-26T18:13:22;23.95;;;14.43;;
32946;SDS011;54465;51.230;22.504;2024-02-26T18:18:22;26.77;;;14.32;;
32946;SDS011;54465;51.230;22.504;2024-02-26T18:23:24;18.58;;;13.15;;
32946;SDS011;54465;51.230;22.504;2024-02-26T18:28:24;19.67;;;11.95;;
32946;SDS011;54465;51.230;22.504;2024-02-26T18:33:25;18.33;;;11.90;;
32946;SDS011;54465;51.230;22.504;2024-02-26T18:38:25;19.55;;;11.68;;
32946;SDS011;54465;51.230;22.504;2024-02-26T18:43:26;20.63;;;11.48;;
32946;SDS011;54465;51.230;22.504;2024-02-26T18:48:27;19.42;;;11.38;;
32946;SDS011;54465;51.230;22.504;2024-02-26T18:53:27;17.67;;;11.13;;
32946;SDS011;54465;51.230;22.504;2024-02-26T18:58:28;19.33;;;10.27;;
32946;SDS011;54465;51.230;22.504;2024-02-26T19:03:29;19.85;;;11.07;;
32946;SDS011;54465;51.230;22.504;2024-02-26T19:08:30;17.05;;;10.68;;
32946;SDS011;54465;51.230;22.504;2024-02-26T19:13:31;17.48;;;10.95;;
32946;SDS011;54465;51.230;22.504;2024-02-26T19:18:32;16.88;;;10.63;;
32946;SDS011;54465;51.230;22.504;2024-02-26T19:23:33;14.35;;;10.43;;
32946;SDS011;54465;51.230;22.504;2024-02-26T19:28:33;19.13;;;10.48;;
32946;SDS011;54465;51.230;22.504;2024-02-26T19:33:34;17.75;;;11.85;;
32946;SDS011;54465;51.230;22.504;2024-02-26T19:38:35;14.75;;;10.50;;
32946;SDS011;54465;51.230;22.504;2024-02-26T19:43:35;19.25;;;10.50;;
32946;SDS011;54465;51.230;22.504;2024-02-26T19:48:36;17.27;;;9.98;;
32946;SDS011;54465;51.230;22.504;2024-02-26T19:53:38;13.90;;;9.60;;
32946;SDS011;54465;51.230;22.504;2024-02-26T19:58:39;18.02;;;10.18;;
32946;SDS011;54465;51.230;22.504;2024-02-26T20:03:39;15.48;;;10.20;;
32946;SDS011;54465;51.230;22.504;2024-02-26T20:08:43;17.88;;;9.68;;
32946;SDS011;54465;51.230;22.504;2024-02-26T20:13:43;15.77;;;10.00;;
32946;SDS011;54465;51.230;22.504;2024-02-26T20:18:44;16.58;;;9.75;;
32946;SDS011;54465;51.230;22.504;2024-02-26T20:23:44;15.80;;;10.20;;
32946;SDS011;54465;51.230;22.504;2024-02-26T20:28:45;15.85;;;10.25;;
32946;SDS011;54465;51.230;22.504;2024-02-26T20:33:46;15.10;;;9.93;;
32946;SDS011;54465;51.230;22.504;2024-02-26T20:38:48;16.20;;;10.35;;
32946;SDS011;54465;51.230;22.504;2024-02-26T20:43:49;14.20;;;9.25;;
32946;SDS011;54465;51.230;22.504;2024-02-26T20:48:50;16.70;;;10.25;;
32946;SDS011;54465;51.230;22.504;2024-02-26T20:53:51;15.82;;;10.02;;
32946;SDS011;54465;51.230;22.504;2024-02-26T20:58:51;14.45;;;9.40;;
32946;SDS011;54465;51.230;22.504;2024-02-26T21:03:53;14.65;;;9.70;;
32946;SDS011;54465;51.230;22.504;2024-02-26T21:08:54;14.70;;;9.40;;
32946;SDS011;54465;51.230;22.504;2024-02-26T21:13:55;14.38;;;9.38;;
32946;SDS011;54465;51.230;22.504;2024-02-26T21:18:55;16.30;;;10.63;;
32946;SDS011;54465;51.230;22.504;2024-02-26T21:23:59;17.10;;;10.57;;
32946;SDS011;54465;51.230;22.504;2024-02-26T21:29:00;15.55;;;10.45;;
32946;SDS011;54465;51.230;22.504;2024-02-26T21:34:00;15.73;;;10.95;;
32946;SDS011;54465;51.230;22.504;2024-02-26T21:39:01;14.27;;;10.43;;
32946;SDS011;54465;51.230;22.504;2024-02-26T21:44:02;15.43;;;10.27;;
32946;SDS011;54465;51.230;22.504;2024-02-26T21:49:06;14.07;;;10.20;;
32946;SDS011;54465;51.230;22.504;2024-02-26T21:54:07;15.38;;;10.38;;
32946;SDS011;54465;51.230;22.504;2024-02-26T21:59:08;15.32;;;10.65;;
32946;SDS011;54465;51.230;22.504;2024-02-26T22:04:09;17.40;;;10.73;;
32946;SDS011;54465;51.230;22.504;2024-02-26T22:09:10;19.33;;;10.68;;
32946;SDS011;54465;51.230;22.504;2024-02-26T22:14:11;16.13;;;10.73;;
32946;SDS011;54465;51.230;22.504;2024-02-26T22:19:11;15.57;;;9.90;;
32946;SDS011;54465;51.230;22.504;2024-02-26T22:24:13;15.60;;;10.60;;
32946;SDS011;54465;51.230;22.504;2024-02-26T22:29:14;21.67;;;11.77;;
32946;SDS011;54465;51.230;22.504;2024-02-26T22:34:14;14.48;;;10.43;;
32946;SDS011;54465;51.230;22.504;2024-02-26T22:39:15;15.50;;;10.40;;
32946;SDS011;54465;51.230;22.504;2024-02-26T22:44:15;18.48;;;10.73;;
32946;SDS011;54465;51.230;22.504;2024-02-26T22:49:16;16.83;;;10.73;;
32946;SDS011;54465;51.230;22.504;2024-02-26T22:54:17;16.83;;;11.27;;
32946;SDS011;54465;51.230;22.504;2024-02-26T22:59:17;15.88;;;10.20;;
32946;SDS011;54465;51.230;22.504;2024-02-26T23:04:18;14.90;;;10.73;;
32946;SDS011;54465;51.230;22.504;2024-02-26T23:09:18;15.88;;;10.82;;
32946;SDS011;54465;51.230;22.504;2024-02-26T23:14:19;17.20;;;10.30;;
32946;SDS011;54465;51.230;22.504;2024-02-26T23:19:19;16.70;;;10.80;;
32946;SDS011;54465;51.230;22.504;2024-02-26T23:24:20;15.07;;;10.45;;
32946;SDS011;54465;51.230;22.504;2024-02-26T23:29:20;16.75;;;10.82;;
32946;SDS011;54465;51.230;22.504;2024-02-26T23:34:21;16.17;;;11.07;;
32946;SDS011;54465;51.230;22.504;2024-02-26T23:39:22;17.38;;;10.68;;
32946;SDS011;54465;51.230;22.504;2024-02-26T23:44:22;19.23;;;12.00;;
32946;SDS011;54465;51.230;22.504;2024-02-26T23:49:23;16.75;;;11.00;;
32946;SDS011;54465;51.230;22.504;2024-02-26T23:54:23;19.90;;;11.20;;
32946;SDS011;54465;51.230;22.504;2024-02-26T23:59:24;18.00;;;10.88;;
